Time;durP1;ratioP1;P1;durP2;ratioP2;P2;SDS_P1;SDS_P2;PMS_P1;PMS_P2;Temp;Humidity;BMP_temperature;BMP_pressure;BME280_temperature;BME280_humidity;BME280_pressure;Samples;Min_cycle;Max_cycle;Signal;HPM_P1;HPM_P2
2021/01/03 00:00:42;;;;;;;14.97;7.97;;;2.80;99.90;;;;;;4206711;28;20281;-50
2021/01/03 00:02:44;;;;;;;12.07;7.17;;;2.70;99.90;;;;;;4206162;28;20318;-48
2021/01/03 00:04:45;;;;;;;14.60;8.00;;;2.70;99.90;;;;;;4206258;28;20322;-50
2021/01/03 00:06:51;;;;;;;12.97;7.23;;;2.60;99.90;;;;;;4207113;28;20338;-50
2021/01/03 00:08:52;;;;;;;15.63;7.87;;;2.50;99.90;;;;;;4217337;28;21153;-50
2021/01/03 00:10:53;;;;;;;16.40;8.77;;;2.30;99.90;;;;;;4223071;28;20325;-50
2021/01/03 00:12:54;;;;;;;15.70;8.30;;;2.20;99.90;;;;;;4223601;28;20702;-52
2021/01/03 00:14:55;;;;;;;14.03;7.67;;;2.00;99.90;;;;;;4219823;28;21048;-53
2021/01/03 00:17:02;;;;;;;16.77;8.30;;;1.90;99.90;;;;;;4207559;28;20337;-53
2021/01/03 00:19:04;;;;;;;17.07;8.63;;;1.80;99.90;;;;;;4206045;28;20264;-54
2021/01/03 00:21:05;;;;;;;16.87;8.13;;;1.70;99.90;;;;;;4207568;28;20284;-49
2021/01/03 00:23:07;;;;;;;14.77;7.97;;;1.70;99.90;;;;;;4206307;28;20284;-51
2021/01/03 00:25:09;;;;;;;12.93;6.93;;;1.70;99.90;;;;;;4207241;28;20274;-52
2021/01/03 00:27:10;;;;;;;12.83;6.80;;;1.70;99.90;;;;;;4221634;28;20329;-47
2021/01/03 00:29:12;;;;;;;18.17;8.43;;;1.80;99.90;;;;;;4223937;28;20325;-49
2021/01/03 00:31:14;;;;;;;15.87;7.20;;;1.90;99.90;;;;;;4222483;28;20321;-48
2021/01/03 00:33:15;;;;;;;13.20;6.80;;;1.90;99.90;;;;;;4224131;28;20835;-49
2021/01/03 00:35:21;;;;;;;15.27;7.97;;;2.00;99.90;;;;;;4222685;28;20761;-49
2021/01/03 00:37:23;;;;;;;13.80;7.63;;;2.00;99.90;;;;;;4223779;28;20275;-53
2021/01/03 00:39:24;;;;;;;15.43;6.80;;;2.10;99.90;;;;;;4223067;28;21135;-50
2021/01/03 00:41:25;;;;;;;17.33;7.80;;;2.20;99.90;;;;;;4223502;28;20329;-52
2021/01/03 00:43:27;;;;;;;16.70;7.20;;;2.30;99.90;;;;;;4221821;28;20373;-50
2021/01/03 00:45:28;;;;;;;12.20;6.37;;;2.30;99.90;;;;;;4222961;28;20252;-51
2021/01/03 00:47:29;;;;;;;15.27;7.63;;;2.40;99.90;;;;;;4223186;28;20280;-50
2021/01/03 00:49:30;;;;;;;18.23;7.80;;;2.50;99.90;;;;;;4224330;28;20268;-48
2021/01/03 00:51:31;;;;;;;13.00;7.20;;;2.60;99.90;;;;;;4227198;27;20268;-50
2021/01/03 00:53:32;;;;;;;15.30;8.33;;;2.70;99.90;;;;;;4226283;28;20284;-51
2021/01/03 00:55:34;;;;;;;14.37;7.33;;;2.70;99.90;;;;;;4227367;27;20264;-49
2021/01/03 00:57:35;;;;;;;13.77;6.53;;;2.70;99.90;;;;;;4226171;27;20293;-57
2021/01/03 00:59:36;;;;;;;12.57;6.57;;;2.60;99.90;;;;;;4227024;27;20396;-52
2021/01/03 01:01:37;;;;;;;13.17;7.10;;;2.70;99.90;;;;;;4226032;27;20901;-49
2021/01/03 01:03:38;;;;;;;12.67;6.53;;;2.60;99.90;;;;;;4227418;27;20264;-49
2021/01/03 01:05:39;;;;;;;11.17;6.60;;;2.60;99.90;;;;;;4225918;28;20268;-50
2021/01/03 01:07:40;;;;;;;13.23;7.10;;;2.60;99.90;;;;;;4227260;27;20264;-48
2021/01/03 01:09:42;;;;;;;14.27;7.90;;;2.60;99.90;;;;;;4225529;28;20344;-48
2021/01/03 01:11:43;;;;;;;13.30;7.30;;;2.60;99.90;;;;;;4223356;28;20325;-52
2021/01/03 01:13:45;;;;;;;12.80;7.07;;;2.50;99.90;;;;;;4226023;28;20284;-51
2021/01/03 01:15:46;;;;;;;16.07;7.93;;;2.50;99.90;;;;;;4226371;28;20321;-53
2021/01/03 01:17:48;;;;;;;12.33;6.43;;;2.50;99.90;;;;;;4213229;28;20264;-50
2021/01/03 01:19:49;;;;;;;14.33;7.93;;;2.50;99.90;;;;;;4208839;28;20257;-48
2021/01/03 01:21:50;;;;;;;13.07;7.07;;;2.50;99.90;;;;;;4209875;28;20265;-55
2021/01/03 01:23:51;;;;;;;14.73;7.23;;;2.50;99.90;;;;;;4209795;28;20361;-47
2021/01/03 01:25:52;;;;;;;12.70;6.10;;;2.50;99.90;;;;;;4209985;28;20268;-47
2021/01/03 01:27:54;;;;;;;13.90;7.43;;;2.50;99.90;;;;;;4220847;28;20336;-51
2021/01/03 01:29:56;;;;;;;12.77;6.77;;;2.40;99.90;;;;;;4227136;27;20298;-48
2021/01/03 01:31:57;;;;;;;11.33;6.67;;;2.40;99.90;;;;;;4225612;28;20284;-51
2021/01/03 01:33:58;;;;;;;13.00;7.17;;;2.40;99.90;;;;;;4226676;28;20288;-48
2021/01/03 01:35:59;;;;;;;11.13;6.03;;;2.40;99.90;;;;;;4225470;27;20272;-49
2021/01/03 01:38:01;;;;;;;15.37;7.60;;;2.40;99.90;;;;;;4226891;28;20753;-50
2021/01/03 01:40:06;;;;;;;12.60;6.67;;;2.40;99.90;;;;;;4223495;27;20337;-51
2021/01/03 01:42:08;;;;;;;13.77;6.60;;;2.50;99.90;;;;;;4226658;28;20377;-52
2021/01/03 01:44:09;;;;;;;12.23;6.43;;;2.40;99.90;;;;;;4225082;28;20260;-52
2021/01/03 01:46:36;;;;;;;13.07;6.97;;;2.40;99.90;;;;;;4225755;27;20333;-51
2021/01/03 01:48:42;;;;;;;11.53;6.37;;;2.40;99.90;;;;;;4225563;28;20256;-50
2021/01/03 01:51:11;;;;;;;11.33;5.77;;;2.40;99.90;;;;;;4226372;27;20306;-49
2021/01/03 01:53:26;;;;;;;13.03;6.90;;;2.40;99.90;;;;;;4224949;27;20264;-48
2021/01/03 01:55:34;;;;;;;12.60;6.93;;;2.40;99.90;;;;;;4226471;28;20248;-49
2021/01/03 01:57:52;;;;;;;12.87;6.83;;;2.30;99.90;;;;;;4225257;27;20708;-48
2021/01/03 02:00:30;;;;;;;11.50;6.70;;;2.20;99.90;;;;;;4226375;27;20271;-49
2021/01/03 02:02:34;;;;;;;13.87;7.50;;;2.10;99.90;;;;;;4222382;28;20325;-50
2021/01/03 02:04:45;;;;;;;13.97;6.63;;;2.00;99.90;;;;;;4226246;27;20268;-49
2021/01/03 02:06:55;;;;;;;13.87;6.57;;;2.00;99.90;;;;;;4218931;27;20280;-51
2021/01/03 02:09:01;;;;;;;15.77;6.60;;;2.10;99.90;;;;;;4209409;28;20335;-54
2021/01/03 02:11:08;;;;;;;9.57;6.00;;;2.10;99.90;;;;;;4208266;28;20451;-49
2021/01/03 02:13:23;;;;;;;11.73;5.83;;;2.10;99.90;;;;;;4209444;28;20338;-50
2021/01/03 02:15:28;;;;;;;12.07;5.90;;;2.20;99.90;;;;;;4208055;28;20748;-53
2021/01/03 02:17:29;;;;;;;11.43;6.30;;;2.20;99.90;;;;;;4218262;28;20272;-49
2021/01/03 02:19:33;;;;;;;12.13;6.73;;;2.20;99.90;;;;;;4224569;28;20268;-49
2021/01/03 02:21:44;;;;;;;12.47;6.83;;;2.20;99.90;;;;;;4226098;28;20256;-50
2021/01/03 02:24:01;;;;;;;;;;;2.20;99.90;;;;;;4225577;28;20310;-48
2021/01/03 02:26:03;;;;;;;11.43;5.63;;;2.30;99.90;;;;;;4226055;28;19908;-48
2021/01/03 02:28:19;;;;;;;11.03;5.73;;;2.20;99.90;;;;;;4224665;28;20482;-50
2021/01/03 02:30:23;;;;;;;13.83;6.47;;;2.20;99.90;;;;;;4225847;28;20296;-50
2021/01/03 02:32:25;;;;;;;13.73;6.93;;;2.10;99.90;;;;;;4224257;28;20340;-50
2021/01/03 02:34:32;;;;;;;11.50;6.30;;;2.00;99.90;;;;;;4223925;28;20353;-53
2021/01/03 02:36:47;;;;;;;15.67;8.33;;;1.90;99.90;;;;;;4224503;27;20997;-53
2021/01/03 02:39:19;;;;;;;12.13;7.23;;;1.90;99.90;;;;;;4225419;27;20280;-51
2021/01/03 02:41:20;;;;;;;15.13;6.77;;;1.80;99.90;;;;;;4224333;27;20613;-53
2021/01/03 02:43:21;;;;;;;12.17;6.60;;;1.80;99.90;;;;;;4226168;27;20273;-53
2021/01/03 02:45:27;;;;;;;14.07;6.30;;;1.70;99.90;;;;;;4224134;28;20276;-51
2021/01/03 02:47:31;;;;;;;10.87;6.40;;;1.80;99.90;;;;;;4225600;28;20284;-50
2021/01/03 02:49:33;;;;;;;14.30;6.83;;;1.70;99.90;;;;;;4224581;27;20268;-50
2021/01/03 02:51:37;;;;;;;11.23;6.73;;;1.70;99.90;;;;;;4225264;28;20272;-51
2021/01/03 02:53:38;;;;;;;11.97;6.73;;;1.70;99.90;;;;;;4224402;28;20292;-48
2021/01/03 02:55:39;;;;;;;14.23;7.20;;;1.70;99.90;;;;;;4225426;28;20670;-56
2021/01/03 02:57:41;;;;;;;10.67;6.27;;;1.80;99.90;;;;;;4225012;27;20337;-53
2021/01/03 02:59:42;;;;;;;16.63;6.37;;;1.90;99.90;;;;;;4224738;27;20268;-49
2021/01/03 03:01:43;;;;;;;10.53;6.17;;;2.00;99.90;;;;;;4224338;28;20301;-52
2021/01/03 03:03:44;;;;;;;12.27;6.53;;;2.10;99.90;;;;;;4211738;27;20293;-52
2021/01/03 03:05:45;;;;;;;12.57;6.17;;;2.10;99.90;;;;;;4208016;28;20314;-47
2021/01/03 03:07:47;;;;;;;11.30;5.43;;;2.20;99.90;;;;;;4207169;28;20281;-52
2021/01/03 03:09:48;;;;;;;10.40;6.10;;;2.20;99.90;;;;;;4207993;28;20671;-48
2021/01/03 03:11:49;;;;;;;11.03;6.03;;;2.20;99.90;;;;;;4207026;28;21030;-53
2021/01/03 03:13:50;;;;;;;10.97;6.57;;;2.20;99.90;;;;;;4208049;28;20374;-51
2021/01/03 03:15:51;;;;;;;12.50;6.47;;;2.20;99.90;;;;;;4206819;28;20758;-52
2021/01/03 03:17:53;;;;;;;14.77;7.97;;;2.10;99.90;;;;;;4208646;28;20310;-49
2021/01/03 03:19:54;;;;;;;13.80;7.00;;;2.10;99.90;;;;;;4206894;28;20273;-50
2021/01/03 03:21:55;;;;;;;15.37;6.90;;;2.00;99.90;;;;;;4207731;28;20306;-53
2021/01/03 03:23:56;;;;;;;14.70;8.07;;;2.00;99.90;;;;;;4207126;28;20728;-51
2021/01/03 03:25:57;;;;;;;14.17;7.43;;;1.90;99.90;;;;;;4208255;28;20269;-50
2021/01/03 03:27:58;;;;;;;17.27;8.63;;;1.80;99.90;;;;;;4207137;28;20299;-54
2021/01/03 03:29:59;;;;;;;13.67;7.43;;;1.70;99.90;;;;;;4208253;28;20686;-54
2021/01/03 03:32:00;;;;;;;13.80;7.33;;;1.60;99.90;;;;;;4207441;28;20257;-53
2021/01/03 03:34:02;;;;;;;13.27;6.93;;;1.60;99.90;;;;;;4207007;28;20296;-54
2021/01/03 03:36:03;;;;;;;13.50;7.67;;;1.60;99.90;;;;;;4207773;28;21110;-52
2021/01/03 03:38:06;;;;;;;15.23;7.70;;;1.60;99.90;;;;;;4206098;28;20265;-51
2021/01/03 03:40:08;;;;;;;14.70;8.20;;;1.70;99.90;;;;;;4208111;28;20333;-50
2021/01/03 03:42:10;;;;;;;14.27;7.93;;;1.60;99.90;;;;;;4206755;28;20281;-52
2021/01/03 03:44:11;;;;;;;15.57;8.20;;;1.60;99.90;;;;;;4207817;28;20277;-48
2021/01/03 03:46:13;;;;;;;17.83;7.63;;;1.60;99.90;;;;;;4206292;28;20264;-49
2021/01/03 03:48:14;;;;;;;15.57;7.60;;;1.60;99.90;;;;;;4208310;28;20281;-53
2021/01/03 03:50:19;;;;;;;16.23;7.40;;;1.60;99.90;;;;;;4206746;28;20285;-46
2021/01/03 03:52:20;;;;;;;13.27;7.97;;;1.60;99.90;;;;;;4207902;28;20257;-47
2021/01/03 03:54:22;;;;;;;17.13;7.83;;;1.50;99.90;;;;;;4206905;28;20334;-51
2021/01/03 03:56:23;;;;;;;16.13;8.60;;;1.50;99.90;;;;;;4211481;28;20271;-49
2021/01/03 03:58:24;;;;;;;15.90;8.60;;;1.40;99.90;;;;;;4222847;28;20321;-50
2021/01/03 04:00:26;;;;;;;16.17;8.90;;;1.30;99.90;;;;;;4224254;28;20739;-52
2021/01/03 04:02:27;;;;;;;19.07;8.27;;;1.30;99.90;;;;;;4223291;28;20256;-54
2021/01/03 04:04:29;;;;;;;12.23;7.63;;;1.30;99.90;;;;;;4223953;28;20313;-51
2021/01/03 04:06:30;;;;;;;13.87;7.97;;;1.30;99.90;;;;;;4223612;28;20313;-51
2021/01/03 04:08:32;;;;;;;14.37;7.87;;;1.20;99.90;;;;;;4223202;28;20271;-52
2021/01/03 04:10:33;;;;;;;18.27;7.80;;;1.20;99.90;;;;;;4224024;28;20272;-49
2021/01/03 04:12:35;;;;;;;16.63;8.80;;;1.20;99.90;;;;;;4223119;28;20277;-53
2021/01/03 04:14:37;;;;;;;18.07;8.53;;;1.20;99.90;;;;;;4224208;28;20795;-53
2021/01/03 04:16:56;;;;;;;15.37;7.40;;;1.20;99.90;;;;;;4223311;28;20329;-51
2021/01/03 04:18:57;;;;;;;15.87;7.73;;;1.20;99.90;;;;;;4224300;28;20365;-50
2021/01/03 04:20:58;;;;;;;13.00;7.63;;;1.30;99.90;;;;;;4223076;28;20325;-55
2021/01/03 04:22:59;;;;;;;13.43;7.60;;;1.40;99.90;;;;;;4224789;28;20294;-47
2021/01/03 04:25:00;;;;;;;12.20;6.60;;;1.50;99.90;;;;;;4212254;28;20253;-48
2021/01/03 04:27:05;;;;;;;12.80;7.07;;;1.60;99.90;;;;;;4207329;28;20746;-48
2021/01/03 04:29:07;;;;;;;14.80;8.43;;;1.60;99.90;;;;;;4205875;28;20257;-51
2021/01/03 04:31:08;;;;;;;15.23;8.13;;;1.60;99.90;;;;;;4207439;28;20285;-53
2021/01/03 04:33:09;;;;;;;15.33;8.03;;;1.60;99.90;;;;;;4206392;28;20334;-52
2021/01/03 04:35:11;;;;;;;14.43;8.73;;;1.60;99.90;;;;;;4207191;28;20300;-52
2021/01/03 04:37:17;;;;;;;11.00;7.13;;;1.40;99.90;;;;;;4216072;28;20276;-50
2021/01/03 04:39:18;;;;;;;18.30;8.30;;;1.40;99.90;;;;;;4223810;28;20249;-54
2021/01/03 04:41:31;;;;;;;13.57;7.90;;;1.30;99.90;;;;;;4223281;28;20317;-53
2021/01/03 04:43:32;;;;;;;14.13;8.60;;;1.30;99.90;;;;;;4223432;28;20325;-54
2021/01/03 04:45:41;;;;;;;16.73;9.03;;;1.30;99.90;;;;;;4223187;28;20319;-53
2021/01/03 04:47:48;;;;;;;21.40;9.60;;;1.30;99.90;;;;;;4222931;28;20264;-51
2021/01/03 04:50:12;;;;;;;13.47;7.80;;;1.30;99.90;;;;;;4222878;28;20332;-48
2021/01/03 04:52:44;;;;;;;16.53;8.30;;;1.30;99.90;;;;;;4217273;28;21073;-55
2021/01/03 04:54:54;;;;;;;13.67;7.87;;;1.30;99.90;;;;;;4206132;28;20381;-53
2021/01/03 04:56:56;;;;;;;14.07;7.70;;;1.30;99.90;;;;;;4207218;28;20289;-53
2021/01/03 04:59:31;;;;;;;13.93;7.70;;;1.40;99.90;;;;;;4206003;28;21092;-50
2021/01/03 05:01:38;;;;;;;11.27;7.63;;;1.40;99.90;;;;;;4207652;28;20277;-48
2021/01/03 05:04:18;;;;;;;13.83;7.30;;;1.40;99.90;;;;;;4205960;28;20273;-50
2021/01/03 05:06:24;;;;;;;12.23;6.67;;;1.40;99.90;;;;;;4206915;28;20314;-50
2021/01/03 05:08:37;;;;;;;15.43;7.47;;;1.40;99.90;;;;;;4205511;28;21129;-49
2021/01/03 05:10:38;;;;;;;16.03;7.27;;;1.40;99.90;;;;;;4206838;28;20280;-47
2021/01/03 05:13:06;;;;;;;16.27;7.50;;;1.50;99.90;;;;;;4206033;28;20825;-55
2021/01/03 05:15:14;;;;;;;14.90;7.40;;;1.60;99.90;;;;;;4207139;28;20356;-51
2021/01/03 05:17:15;;;;;;;15.97;7.37;;;1.70;99.90;;;;;;4205983;28;20653;-46
2021/01/03 05:19:16;;;;;;;15.83;8.30;;;1.70;99.90;;;;;;4207000;28;20265;-50
2021/01/03 05:21:17;;;;;;;13.17;7.30;;;1.70;99.90;;;;;;4205613;28;20322;-49
2021/01/03 05:23:21;;;;;;;12.33;7.23;;;1.70;99.90;;;;;;4207416;28;20257;-46
2021/01/03 05:25:39;;;;;;;46.07;14.20;;;1.80;99.90;;;;;;4192271;28;20350;-46
2021/01/03 05:27:41;;;;;;;17.13;8.47;;;1.70;99.90;;;;;;4190730;28;20514;-51
2021/01/03 05:29:43;;;;;;;24.03;10.93;;;1.60;99.90;;;;;;4188865;28;20787;-49
2021/01/03 05:31:59;;;;;;;16.87;8.77;;;1.40;99.90;;;;;;4223393;28;20276;-48
2021/01/03 05:34:03;;;;;;;16.03;8.30;;;1.40;99.90;;;;;;4222187;28;20260;-46
2021/01/03 05:36:25;;;;;;;16.17;7.87;;;1.50;99.90;;;;;;4221532;28;20289;-48
2021/01/03 05:38:36;;;;;;;13.40;7.40;;;1.50;99.90;;;;;;4208536;28;20330;-51
2021/01/03 05:40:41;;;;;;;10.70;6.30;;;1.60;99.90;;;;;;4209364;28;20306;-48
2021/01/03 05:42:43;;;;;;;14.00;7.23;;;1.70;99.90;;;;;;4208743;28;20830;-50
2021/01/03 05:45:00;;;;;;;12.83;6.70;;;1.70;99.90;;;;;;4209434;28;20323;-47
2021/01/03 05:47:06;;;;;;;14.53;7.13;;;1.80;99.90;;;;;;4207958;28;20334;-45
2021/01/03 05:49:12;;;;;;;15.33;7.70;;;1.80;99.90;;;;;;4210344;28;20281;-46
2021/01/03 05:51:34;;;;;;;13.43;6.63;;;1.80;99.90;;;;;;4208422;28;20334;-49
2021/01/03 05:53:36;;;;;;;14.40;7.37;;;1.80;99.90;;;;;;4210606;28;20294;-50
2021/01/03 05:55:38;;;;;;;16.00;8.30;;;1.80;99.90;;;;;;4208217;28;20293;-46
2021/01/03 05:57:39;;;;;;;13.60;7.53;;;1.80;99.90;;;;;;4209714;28;20318;-52
2021/01/03 05:59:42;;;;;;;16.20;7.93;;;1.70;99.90;;;;;;4208102;28;20268;-48
2021/01/03 06:01:43;;;;;;;16.57;8.10;;;1.60;99.90;;;;;;4209017;28;20261;-51
2021/01/03 06:03:57;;;;;;;16.13;8.20;;;1.50;99.90;;;;;;4208387;28;20322;-47
2021/01/03 06:06:22;;;;;;;15.77;8.60;;;1.50;99.90;;;;;;4209082;28;20281;-50
2021/01/03 06:08:26;;;;;;;21.13;7.87;;;1.30;99.90;;;;;;4207674;28;20835;-50
2021/01/03 06:10:34;;;;;;;15.23;8.17;;;1.20;99.90;;;;;;4209438;28;20671;-51
2021/01/03 06:12:35;;;;;;;21.83;9.23;;;1.20;99.90;;;;;;4208077;28;21042;-49
2021/01/03 06:14:37;;;;;;;16.70;8.93;;;1.20;99.90;;;;;;4209020;28;20326;-49
2021/01/03 06:16:46;;;;;;;17.77;10.07;;;1.10;99.90;;;;;;4208123;28;20354;-50
2021/01/03 06:18:50;;;;;;;22.63;10.43;;;1.00;99.90;;;;;;4208978;28;20268;-49
2021/01/03 06:20:51;;;;;;;19.03;9.27;;;1.00;99.90;;;;;;4217294;28;20293;-48
2021/01/03 06:23:13;;;;;;;17.20;9.53;;;0.90;99.90;;;;;;4225329;28;20324;-48
2021/01/03 06:25:41;;;;;;;17.20;8.80;;;0.90;99.90;;;;;;4224358;28;20276;-49
2021/01/03 06:27:47;;;;;;;19.67;10.43;;;0.90;99.90;;;;;;4208942;28;20326;-51
2021/01/03 06:30:05;;;;;;;18.50;9.00;;;1.00;99.90;;;;;;4213017;28;20325;-51
2021/01/03 06:32:24;;;;;;;16.23;9.63;;;1.00;99.90;;;;;;4225106;28;20260;-48
2021/01/03 06:34:38;;;;;;;13.60;8.23;;;1.10;99.90;;;;;;4223861;28;20287;-45
2021/01/03 06:36:54;;;;;;;16.43;8.17;;;1.10;99.90;;;;;;4225841;27;20329;-51
2021/01/03 06:39:33;;;;;;;17.00;8.80;;;1.30;99.90;;;;;;4222249;27;20280;-49
2021/01/03 06:41:48;;;;;;;18.50;8.90;;;1.40;99.90;;;;;;4224985;28;20267;-49
2021/01/03 06:44:07;;;;;;;18.53;9.20;;;1.50;99.90;;;;;;4224601;28;20325;-47
2021/01/03 06:47:05;;;;;;;18.00;8.47;;;1.50;99.90;;;;;;4226424;27;20329;-48
2021/01/03 06:49:27;;;;;;;13.40;8.47;;;1.70;99.90;;;;;;4189009;28;20331;-50
2021/01/03 06:51:53;;;;;;;14.83;8.27;;;1.80;99.90;;;;;;4187445;28;20327;-48
2021/01/03 06:54:28;;;;;;;14.27;8.70;;;1.80;99.90;;;;;;4200008;28;20271;-53
2021/01/03 06:56:41;;;;;;;17.33;8.67;;;1.90;99.90;;;;;;4223985;27;20658;-48
2021/01/03 06:58:57;;;;;;;13.90;8.43;;;2.00;99.90;;;;;;4223647;27;20272;-49
2021/01/03 07:01:09;;;;;;;17.37;9.03;;;2.20;99.90;;;;;;4222373;27;20321;-49
2021/01/03 07:03:21;;;;;;;15.70;7.80;;;2.20;99.90;;;;;;4225567;28;20324;-54
2021/01/03 07:05:22;;;;;;;17.83;9.90;;;2.20;99.90;;;;;;4223792;28;20839;-54
2021/01/03 07:07:28;;;;;;;18.00;9.50;;;2.30;99.90;;;;;;4225426;28;20829;-48
2021/01/03 07:09:29;;;;;;;14.27;7.80;;;2.40;99.90;;;;;;4223730;27;20332;-51
2021/01/03 07:11:37;;;;;;;14.30;7.60;;;2.50;99.90;;;;;;4210339;27;20325;-46
2021/01/03 07:13:40;;;;;;;13.50;6.40;;;2.60;99.90;;;;;;4206142;28;20672;-53
2021/01/03 07:15:41;;;;;;;10.87;6.77;;;2.80;99.90;;;;;;4211953;28;20368;-54
2021/01/03 07:18:02;;;;;;;15.63;7.23;;;3.00;99.90;;;;;;4223172;27;20313;-51
2021/01/03 07:20:04;;;;;;;;;;;3.10;99.90;;;;;;4225105;28;20305;-53
2021/01/03 07:22:12;;;;;;;18.83;8.30;;;3.20;99.90;;;;;;4223420;28;19907;-47
2021/01/03 07:24:28;;;;;;;18.67;8.33;;;3.20;99.90;;;;;;4225111;28;20325;-46
2021/01/03 07:26:31;;;;;;;12.20;6.50;;;3.30;99.90;;;;;;4223091;27;20272;-54
2021/01/03 07:28:34;;;;;;;11.77;7.03;;;3.30;99.90;;;;;;4224145;28;20276;-47
2021/01/03 07:31:25;;;;;;;13.20;7.53;;;3.40;99.90;;;;;;4221353;28;20284;-50
2021/01/03 07:33:36;;;;;;;16.23;9.02;;;3.40;99.90;;;;;;4178621;28;20281;-49
2021/01/03 07:35:40;;;;;;;18.07;9.33;;;3.40;99.90;;;;;;4189099;28;20048;-50
2021/01/03 07:37:41;;;;;;;15.13;8.43;;;3.40;99.90;;;;;;4190818;28;20286;-50
2021/01/03 07:40:11;;;;;;;14.53;8.33;;;3.50;99.90;;;;;;4188659;28;20277;-52
2021/01/03 07:42:25;;;;;;;13.45;7.75;;;3.50;99.90;;;;;;4189518;28;20273;-54
2021/01/03 07:44:26;;;;;;;13.03;7.43;;;3.50;99.90;;;;;;4189124;28;20028;-50
2021/01/03 07:46:42;;;;;;;16.83;8.33;;;3.60;99.90;;;;;;4190639;28;20274;-47
2021/01/03 07:48:43;;;;;;;14.43;6.97;;;3.50;99.90;;;;;;4188776;28;20322;-48
2021/01/03 07:50:44;;;;;;;11.90;7.87;;;3.50;99.90;;;;;;4190164;28;20319;-54
2021/01/03 07:53:15;;;;;;;16.70;7.57;;;3.50;99.90;;;;;;4188375;28;20319;-53
2021/01/03 07:55:22;;;;;;;19.58;8.15;;;3.50;99.90;;;;;;4180638;28;20305;-49
2021/01/03 07:57:27;;;;;;;15.20;7.53;;;3.70;99.90;;;;;;4190961;28;20086;-51
2021/01/03 07:59:28;;;;;;;16.33;8.27;;;3.70;99.90;;;;;;4222867;28;20264;-51
2021/01/03 08:01:37;;;;;;;24.27;9.57;;;3.90;99.90;;;;;;4222560;28;20617;-53
2021/01/03 08:03:38;;;;;;;13.43;8.03;;;3.90;99.90;;;;;;4221630;28;21033;-51
2021/01/03 08:05:41;;;;;;;15.67;9.07;;;4.00;99.90;;;;;;4222785;27;20268;-53
2021/01/03 08:07:42;;;;;;;15.20;8.50;;;3.90;99.90;;;;;;4224102;28;20337;-50
2021/01/03 08:09:43;;;;;;;13.70;7.33;;;4.00;99.90;;;;;;4223054;28;20295;-57
2021/01/03 08:11:45;;;;;;;14.83;8.07;;;4.00;99.90;;;;;;4222252;28;20284;-50
2021/01/03 08:13:48;;;;;;;13.90;7.17;;;4.00;99.90;;;;;;4216876;28;20271;-51
2021/01/03 08:15:55;;;;;;;15.73;7.60;;;4.00;99.90;;;;;;4206929;28;20293;-53
2021/01/03 08:18:18;;;;;;;12.93;6.60;;;4.10;99.90;;;;;;4205445;28;20958;-48
2021/01/03 08:20:23;;;;;;;15.33;7.77;;;4.00;99.90;;;;;;4217140;28;20272;-48
2021/01/03 08:22:26;;;;;;;12.17;7.60;;;4.00;99.90;;;;;;4222919;28;20260;-55
2021/01/03 08:24:29;;;;;;;11.83;6.37;;;4.10;99.90;;;;;;4224464;28;20306;-59
2021/01/03 08:26:53;;;;;;;10.93;6.37;;;4.00;99.90;;;;;;4222544;28;20317;-53
2021/01/03 08:29:33;;;;;;;11.20;6.10;;;4.10;99.90;;;;;;4215832;28;20314;-51
2021/01/03 08:31:48;;;;;;;12.68;6.20;;;4.10;99.90;;;;;;4205939;28;20333;-51
2021/01/03 08:33:53;;;;;;;17.60;6.50;;;4.10;99.90;;;;;;4206697;28;20036;-56
2021/01/03 08:35:54;;;;;;;11.93;6.40;;;4.20;99.90;;;;;;4205325;28;20345;-55
2021/01/03 08:37:55;;;;;;;15.27;7.20;;;4.20;99.90;;;;;;4206721;28;20277;-49
2021/01/03 08:39:57;;;;;;;14.13;5.73;;;4.20;99.90;;;;;;4205615;28;20677;-52
2021/01/03 08:42:04;;;;;;;10.23;6.03;;;4.20;99.90;;;;;;4207402;28;20298;-52
2021/01/03 08:44:06;;;;;;;12.00;6.07;;;4.20;99.90;;;;;;4204931;28;20861;-53
2021/01/03 08:46:08;;;;;;;12.27;6.00;;;4.30;99.90;;;;;;4206980;28;20326;-52
2021/01/03 08:48:21;;;;;;;13.80;6.07;;;4.40;99.90;;;;;;4205988;28;20294;-53
2021/01/03 08:50:25;;;;;;;10.83;5.37;;;4.50;99.90;;;;;;4206408;28;20325;-56
2021/01/03 08:52:26;;;;;;;10.17;5.87;;;4.70;99.90;;;;;;4206664;28;20723;-47
2021/01/03 08:54:27;;;;;;;11.90;6.27;;;4.70;99.90;;;;;;4215710;28;20292;-46
2021/01/03 08:56:35;;;;;;;13.07;5.47;;;4.80;99.90;;;;;;4222626;28;20405;-45
2021/01/03 08:58:39;;;;;;;16.53;6.23;;;4.80;99.90;;;;;;4222648;27;20283;-48
2021/01/03 09:00:43;;;;;;;11.73;5.37;;;4.90;99.90;;;;;;4222233;28;20747;-47
2021/01/03 09:02:45;;;;;;;13.97;5.63;;;4.90;99.90;;;;;;4222779;28;20260;-45
2021/01/03 09:04:47;;;;;;;12.67;5.70;;;5.10;99.90;;;;;;4221722;28;20283;-47
2021/01/03 09:06:59;;;;;;;8.43;4.70;;;5.20;99.90;;;;;;4222741;28;20268;-53
2021/01/03 09:09:11;;;;;;;8.93;4.60;;;5.30;99.90;;;;;;4211512;28;20785;-50
2021/01/03 09:11:31;;;;;;;9.43;5.00;;;5.30;99.90;;;;;;4208146;28;20299;-56
2021/01/03 09:13:35;;;;;;;8.40;5.27;;;5.40;99.90;;;;;;4209438;28;20714;-48
2021/01/03 09:15:40;;;;;;;10.43;4.90;;;5.40;99.90;;;;;;4208649;28;20304;-57
2021/01/03 09:17:41;;;;;;;15.47;6.03;;;5.40;99.90;;;;;;4209659;28;20260;-50
2021/01/03 09:20:00;;;;;;;11.57;5.90;;;5.40;99.90;;;;;;4208753;28;20722;-48
2021/01/03 09:22:02;;;;;;;10.73;6.47;;;5.40;99.90;;;;;;4208829;28;20261;-48
2021/01/03 09:24:05;;;;;;;9.27;5.33;;;5.40;99.90;;;;;;4208589;28;20326;-50
2021/01/03 09:26:07;;;;;;;11.87;5.57;;;5.40;99.90;;;;;;4209857;28;20292;-43
2021/01/03 09:28:34;;;;;;;7.60;5.27;;;5.40;99.90;;;;;;4208283;28;20686;-53
2021/01/03 09:30:38;;;;;;;9.40;5.57;;;5.40;99.90;;;;;;4209252;28;20401;-52
2021/01/03 09:32:41;;;;;;;11.60;6.63;;;5.30;99.90;;;;;;4208523;28;20322;-52
2021/01/03 09:34:50;;;;;;;10.57;6.50;;;5.30;99.90;;;;;;4210512;28;20634;-49
2021/01/03 09:36:58;;;;;;;17.97;7.90;;;5.30;99.90;;;;;;4208311;28;20277;-52
2021/01/03 09:39:14;;;;;;;15.93;8.53;;;5.30;99.90;;;;;;4209555;28;20329;-48
2021/01/03 09:41:24;;;;;;;18.53;7.20;;;5.30;99.90;;;;;;4207919;28;20280;-49
2021/01/03 09:43:50;;;;;;;12.88;6.93;;;5.20;99.90;;;;;;4210414;28;20330;-49
2021/01/03 09:46:05;;;;;;;12.23;6.77;;;5.20;99.90;;;;;;4191622;28;20489;-50
2021/01/03 09:48:07;;;;;;;13.70;7.23;;;5.20;99.90;;;;;;4191855;28;20323;-50
2021/01/03 09:50:45;;;;;;;12.03;7.10;;;5.10;99.90;;;;;;4191610;28;20266;-55
2021/01/03 09:52:55;;;;;;;12.83;7.07;;;5.10;99.90;;;;;;4210959;28;20280;-51
2021/01/03 09:55:07;;;;;;;9.93;6.37;;;5.00;99.90;;;;;;4226093;28;20594;-50
2021/01/03 09:57:20;;;;;;;14.40;7.37;;;4.90;99.90;;;;;;4225476;28;20376;-49
2021/01/03 09:59:21;;;;;;;16.60;8.17;;;4.90;99.90;;;;;;4225677;28;20268;-48
2021/01/03 10:01:32;;;;;;;13.93;7.33;;;4.90;99.90;;;;;;4225830;27;20272;-57
2021/01/03 10:03:39;;;;;;;15.55;8.43;;;4.90;99.90;;;;;;4224829;27;20408;-62
2021/01/03 10:05:41;;;;;;;15.30;8.47;;;4.90;99.90;;;;;;4223942;28;20425;-56
2021/01/03 10:07:42;;;;;;;19.67;10.53;;;4.80;99.90;;;;;;4221459;28;20311;-53
2021/01/03 10:09:52;;;;;;;17.70;10.33;;;4.80;99.90;;;;;;4225331;27;20670;-55
2021/01/03 10:11:53;;;;;;;19.30;11.03;;;4.80;99.90;;;;;;4224805;28;20390;-55
2021/01/03 10:14:00;;;;;;;18.03;10.83;;;4.70;99.90;;;;;;4226005;27;20329;-53
2021/01/03 10:16:19;;;;;;;20.37;11.80;;;4.70;99.90;;;;;;4224463;28;20344;-57
2021/01/03 10:18:40;;;;;;;22.17;12.10;;;4.70;99.90;;;;;;4225486;27;20269;-53
2021/01/03 10:20:49;;;;;;;21.42;11.82;;;4.60;99.90;;;;;;4224792;28;20284;-50
2021/01/03 10:22:50;;;;;;;23.17;13.13;;;4.60;99.90;;;;;;4224805;27;20035;-54
2021/01/03 10:24:59;;;;;;;24.30;13.80;;;4.60;99.90;;;;;;4224692;28;20310;-52
2021/01/03 10:27:03;;;;;;;28.17;16.13;;;4.50;99.90;;;;;;4224953;27;20785;-55
2021/01/03 10:29:05;;;;;;;29.87;17.93;;;4.50;99.90;;;;;;4223249;27;20990;-52
2021/01/03 10:31:06;;;;;;;28.23;15.40;;;4.50;99.90;;;;;;4224439;28;20272;-50
2021/01/03 10:33:09;;;;;;;29.83;17.93;;;4.50;99.90;;;;;;4224046;28;21093;-53
2021/01/03 10:35:11;;;;;;;26.53;15.30;;;4.50;99.90;;;;;;4224931;27;20626;-54
2021/01/03 10:37:12;;;;;;;20.10;12.60;;;4.50;99.90;;;;;;4219419;28;20280;-48
2021/01/03 10:39:15;;;;;;;25.37;14.23;;;4.50;99.90;;;;;;4208368;28;20670;-54
2021/01/03 10:41:16;;;;;;;27.40;14.43;;;4.50;99.90;;;;;;4207185;28;20717;-51
2021/01/03 10:43:18;;;;;;;23.10;11.73;;;4.50;99.90;;;;;;4208531;28;20268;-50
2021/01/03 10:45:20;;;;;;;21.00;10.40;;;4.50;99.90;;;;;;4216305;28;20341;-55
2021/01/03 10:47:21;;;;;;;19.03;11.73;;;4.60;99.90;;;;;;4225384;27;20272;-51
2021/01/03 10:49:22;;;;;;;20.50;11.93;;;4.60;99.90;;;;;;4224252;27;20834;-55
2021/01/03 10:51:35;;;;;;;15.03;8.23;;;4.60;99.90;;;;;;4224593;28;20272;-51
2021/01/03 10:53:36;;;;;;;16.57;8.70;;;4.60;99.90;;;;;;4223824;27;20260;-49
2021/01/03 10:55:37;;;;;;;15.40;8.83;;;4.60;99.90;;;;;;4224727;28;20901;-54
2021/01/03 10:57:39;;;;;;;10.90;6.90;;;4.60;99.90;;;;;;4224367;27;20353;-53
2021/01/03 10:59:40;;;;;;;14.97;7.80;;;4.50;99.90;;;;;;4224203;28;20268;-53
2021/01/03 11:01:42;;;;;;;12.23;7.17;;;4.50;99.90;;;;;;4224423;27;20301;-50